Ashley, Michigan
Current Conditions -  °F | °C
As of 1:29 PM on Thursday 23 Oct 2014 (Local Time) from KAMN Reporting Station
Scattered Clouds Scattered Clouds  
Wind Chill: 48°   Ceiling: Unl
Heat Index: 48°   Visibility: 10mi
Dew Point: 40°   Wind: 0mph
Humidity: 75%   Direction: NA
Pressure: 30.21"   Gusts: NA
Location:  43.19°N, 84.47°W
Report Text: KAMN 231729Z AUTO 00000KT 10SM SCT019 09/05 A3021 RMK AO2 T00900047
Loading
Personal Weather Stations






























Interactive Weather Map
Tropical Storm Tracking
New forecast layout! Learn more

10-Day Weather Forecast

Advertisements
Track Severe Weather on mobile